Azov, Russia
Current Conditions -  °F | °C
As of 9:00 PM on Wednesday 28 Jan 2015 (Local Time) from URRR Reporting Station
Overcast Overcast  
Wind Chill: 22°   Ceiling: 400
Heat Index: 32°   Visibility: 4mi
Dew Point: 32°   Wind: 13mph
Humidity: 100%   Direction: 110°ESE
Pressure: 29.91"   Gusts: NA
Location:  47.11°N, 39.41°E
Report Text: URRR 281800Z 11006MPS 7000 OVC004 00/00 Q1013 04290041 TEMPOBKN002 RMK QBB140 MAST OBSC
Loading
Personal Weather Stations






























Interactive Weather Map New forecast layout! Learn more

10-Day Weather Forecast

Advertisements
Track Severe Weather on mobile